Limpo, com algumas nuvens baixas e cirrus
Variável com cirrus com algumas nuvens de trovoada possíveis
Variável com cirrus com algumas nuvens de trovoada possíveis
Variável com cirrus com algumas nuvens de trovoada possíveis
Variável com cirrus com algumas nuvens de trovoada possíveis
Nublado com chuva ligeira
Nublado com chuva ligeira
(°C)
22°
23°
23°
23°
23°
22°
20°
(°C)
20°
23°
21°
22°
22°
21°
20°
ENE
L
O
SE
SE
ENE
L
(km/h)
9-13
3-10
8-12
4-12
3-11
5-9
2-10
(mm)
0
0
0
0
0
0.1
0.3
(%)
32
41
50
39
44
38
42

Elevação do sol

/ 61.5°
sun-icon
UV 4
05:17
21:09
Minguante gibosa (239°)
00:51
09:38

METAR para Innsbruck (LOWI)

Hora Condições Temperatura/
Ponto de condensação
Vento Visibilidade Tempo Nuvens Pressão Mudança Bruto
VFR 21°C / 11°C variable 3kt >10km - Few Clouds 5000ft
Few Clouds 6000ft
Scattered Clouds 6500ft
Broken Clouds 10000ft
1016 Becoming: Wind 90º 8kt. LOWI 081150Z VRB03KT 9999 FEW050 FEW060CB SCT065 BKN100 21/11 Q1016 BECMG 09008KT
VFR 18°C / 11°C 280º variable 250º to 310º 4kt >10km Light Showers Rain 3.00mm precipitation Vertical Visibility of 0ft.
Scattered Clouds 6000ft
Broken Clouds 9000ft
1016 Becoming: Wind 90º 8kt. LOWI 081120Z 28004KT 250V310 9999 -SHRA FEW040 SCT060CB BKN090 18/11 Q1016 RETS BECMG 09008KT
VFR 17°C / 11°C 280º variable 220º to 340º 6kt >10km Light Showers Rain 3.00mm precipitation Vertical Visibility of 0ft.
Scattered Clouds 6000ft
Broken Clouds 9000ft
1016 Temporary: Thunderstorm Rain . LOWI 081050Z 28006KT 220V340 9999 -SHRA FEW040 SCT060CB BKN090 17/11 Q1016 TEMPO TSRA
VFR 16°C / 11°C 300º 12kt >10km Light Showers Rain in the Vicinity Thunderstorm 3.00mm precipitation Vertical Visibility of 0ft.
Scattered Clouds 6000ft
Broken Clouds 9000ft
1016 Temporary: Thunderstorm Rain . LOWI 081020Z 30012KT 9999 -SHRA VCTS FEW040 SCT060CB BKN090 16/11 Q1016 TEMPO TSRA
VFR 18°C / 9°C 260º 20kt >10km Light Showers Rain in the Vicinity Thunderstorm 3.00mm precipitation Vertical Visibility of 0ft.
Scattered Clouds 5000ft
Broken Clouds 8000ft
1016 Temporary: Thunderstorm Rain . LOWI 080950Z 26020KT 9999 -SHRA VCTS FEW030 SCT050CB BKN080 18/09 Q1016 TEMPO TSRA
VFR 18°C / 10°C 250º 20kt >10km Light Showers Rain in the Vicinity Thunderstorm 3.00mm precipitation Vertical Visibility of 0ft.
Scattered Clouds 5000ft
Broken Clouds 8000ft
1016 Temporary: Thunderstorm Rain . LOWI 080920Z 25020KT 9999 -SHRA VCTS FEW030 SCT050CB BKN080 18/10 Q1016 TEMPO TSRA
VFR 19°C / 10°C 260º variable 230º to 290º 14kt >10km in the Vicinity Thunderstorm Vertical Visibility of 0ft.
Scattered Clouds 5000ft
Broken Clouds 8000ft
1015 Temporary: Wind variable 15kt. Gust 30KT. Thunderstorm Rain . LOWI 080850Z 26014KT 230V290 9999 VCTS FEW030 SCT050CB BKN080 19/10 Q1015 TEMPO VRB15G30KT TSRA
VFR 20°C / 11°C 270º variable 240º to 310º 7kt >10km - Few Clouds 5000ft
Scattered Clouds 6000ft
Broken Clouds 9000ft
1015 Temporary: Wind variable 15kt. Gust 30KT. Light Thunderstorm Rain . LOWI 080820Z 27007KT 240V310 9999 FEW050 SCT060CB BKN090 20/11 Q1015 TEMPO VRB15G30KT -TSRA
VFR 19°C / 11°C 270º variable 210º to 310º 4kt >10km - Few Clouds 6000ft
Scattered Clouds 6500ft
1016 Becoming: Scattered Clouds 6000ft. Cumulonimbus LOWI 080750Z 27004KT 210V310 9999 FEW060TCU SCT065 19/11 Q1016 BECMG SCT060CB
VFR 18°C / 11°C 270º variable 240º to 300º 5kt >10km - Few Clouds 6000ft
Scattered Clouds 6500ft
1016 Becoming: Scattered Clouds 6000ft. Cumulonimbus LOWI 080720Z 27005KT 240V300 9999 FEW060TCU SCT065 18/11 Q1016 BECMG SCT060CB
VFR 18°C / 10°C variable 2kt >10km - Few Clouds 6000ft
Scattered Clouds 6500ft
1016 No Significant change LOWI 080650Z VRB02KT 9999 FEW060TCU SCT065 18/10 Q1016 NOSIG
VFR 16°C / 12°C 270º variable 240º to 300º 4kt >10km - Scattered Clouds 6500ft
Scattered Clouds 10000ft
1016 No Significant change LOWI 080620Z 27004KT 240V300 9999 SCT065 SCT100 16/12 Q1016 NOSIG
VFR 16°C / 11°C 260º 5kt >10km - Scattered Clouds 6500ft
Broken Clouds 12000ft
1016 No Significant change LOWI 080550Z 26005KT 9999 SCT065 BKN120 16/11 Q1016 NOSIG
VFR 16°C / 11°C 270º 5kt >10km - Few Clouds 6500ft
Scattered Clouds 9000ft
Broken Clouds 12000ft
1016 No Significant change LOWI 080520Z 27005KT 9999 FEW065 SCT090 BKN120 16/11 Q1016 NOSIG
VFR 15°C / 11°C variable 2kt >10km - Few Clouds 6500ft
Scattered Clouds 9000ft
Broken Clouds 12000ft
1016 No Significant change LOWI 080450Z VRB02KT 9999 FEW065 SCT090 BKN120 15/11 Q1016 NOSIG
VFR 13°C / 11°C 150º 2kt >10km - Few Clouds 6500ft
Scattered Clouds 9000ft
Broken Clouds 12000ft
1016 No Significant change LOWI 080420Z 15002KT 9999 FEW065 SCT090 BKN120 13/11 Q1016 NOSIG
VFR 13°C / 10°C variable 2kt >10km - Few Clouds 6500ft
Broken Clouds 10000ft
1016 No Significant change LOWI 080350Z VRB02KT 9999 FEW065 BKN100 13/10 Q1016 NOSIG
VFR 13°C / 10°C variable 2kt >10km - Few Clouds 9000ft
Scattered Clouds 10000ft
Broken Clouds 12000ft
1016 - LOWI 080320Z AUTO VRB02KT 9999 FEW090 SCT100 BKN120 13/10 Q1016
VFR 13°C / 10°C variable 2kt >10km - Few Clouds 9000ft
Broken Clouds 11000ft
1016 - LOWI 080250Z AUTO VRB02KT 9999 FEW090 BKN110 13/10 Q1016
VFR 13°C / 10°C variable 1kt >10km - Broken Clouds 9000ft 1016 - LOWI 080220Z AUTO VRB01KT 9999 BKN090 13/10 Q1016
VFR 14°C / 10°C variable 1kt >10km - Few Clouds 9000ft 1016 - LOWI 080150Z AUTO VRB01KT 9999 FEW090 14/10 Q1016
VFR 14°C / 10°C variable 1kt >10km - Clear 1016 - LOWI 080120Z AUTO VRB01KT 9999 NSC 14/10 Q1016
VFR 15°C / 10°C variable 2kt >10km - Clear 1017 - LOWI 080050Z AUTO VRB02KT 9999 NSC 15/10 Q1017
VFR 15°C / 10°C variable 4kt >10km - Few Clouds 10000ft 1017 - LOWI 080020Z AUTO VRB04KT 9999 FEW100 15/10 Q1017

VFR

21°C / 11°C

[Mais]
Vento variable 3kt
Visibilidade >10km
Tempo -
Nuvens Few Clouds 5000ft
Few Clouds 6000ft
Scattered Clouds 6500ft
Broken Clouds 10000ft
Pressão 1016
Mudança Becoming: Wind 90º 8kt.
Bruto LOWI 081150Z VRB03KT 9999 FEW050 FEW060CB SCT065 BKN100 21/11 Q1016 BECMG 09008KT

VFR

18°C / 11°C

[Mais]
Vento 280º variable 250º to 310º 4kt
Visibilidade >10km
Tempo Light Showers Rain 3.00mm precipitation
Nuvens Vertical Visibility of 0ft.
Scattered Clouds 6000ft
Broken Clouds 9000ft
Pressão 1016
Mudança Becoming: Wind 90º 8kt.
Bruto LOWI 081120Z 28004KT 250V310 9999 -SHRA FEW040 SCT060CB BKN090 18/11 Q1016 RETS BECMG 09008KT

VFR

17°C / 11°C

[Mais]
Vento 280º variable 220º to 340º 6kt
Visibilidade >10km
Tempo Light Showers Rain 3.00mm precipitation
Nuvens Vertical Visibility of 0ft.
Scattered Clouds 6000ft
Broken Clouds 9000ft
Pressão 1016
Mudança Temporary: Thunderstorm Rain .
Bruto LOWI 081050Z 28006KT 220V340 9999 -SHRA FEW040 SCT060CB BKN090 17/11 Q1016 TEMPO TSRA

VFR

16°C / 11°C

[Mais]
Vento 300º 12kt
Visibilidade >10km
Tempo Light Showers Rain in the Vicinity Thunderstorm 3.00mm precipitation
Nuvens Vertical Visibility of 0ft.
Scattered Clouds 6000ft
Broken Clouds 9000ft
Pressão 1016
Mudança Temporary: Thunderstorm Rain .
Bruto LOWI 081020Z 30012KT 9999 -SHRA VCTS FEW040 SCT060CB BKN090 16/11 Q1016 TEMPO TSRA

VFR

18°C / 9°C

[Mais]
Vento 260º 20kt
Visibilidade >10km
Tempo Light Showers Rain in the Vicinity Thunderstorm 3.00mm precipitation
Nuvens Vertical Visibility of 0ft.
Scattered Clouds 5000ft
Broken Clouds 8000ft
Pressão 1016
Mudança Temporary: Thunderstorm Rain .
Bruto LOWI 080950Z 26020KT 9999 -SHRA VCTS FEW030 SCT050CB BKN080 18/09 Q1016 TEMPO TSRA

VFR

18°C / 10°C

[Mais]
Vento 250º 20kt
Visibilidade >10km
Tempo Light Showers Rain in the Vicinity Thunderstorm 3.00mm precipitation
Nuvens Vertical Visibility of 0ft.
Scattered Clouds 5000ft
Broken Clouds 8000ft
Pressão 1016
Mudança Temporary: Thunderstorm Rain .
Bruto LOWI 080920Z 25020KT 9999 -SHRA VCTS FEW030 SCT050CB BKN080 18/10 Q1016 TEMPO TSRA

VFR

19°C / 10°C

[Mais]
Vento 260º variable 230º to 290º 14kt
Visibilidade >10km
Tempo in the Vicinity Thunderstorm
Nuvens Vertical Visibility of 0ft.
Scattered Clouds 5000ft
Broken Clouds 8000ft
Pressão 1015
Mudança Temporary: Wind variable 15kt. Gust 30KT. Thunderstorm Rain .
Bruto LOWI 080850Z 26014KT 230V290 9999 VCTS FEW030 SCT050CB BKN080 19/10 Q1015 TEMPO VRB15G30KT TSRA

VFR

20°C / 11°C

[Mais]
Vento 270º variable 240º to 310º 7kt
Visibilidade >10km
Tempo -
Nuvens Few Clouds 5000ft
Scattered Clouds 6000ft
Broken Clouds 9000ft
Pressão 1015
Mudança Temporary: Wind variable 15kt. Gust 30KT. Light Thunderstorm Rain .
Bruto LOWI 080820Z 27007KT 240V310 9999 FEW050 SCT060CB BKN090 20/11 Q1015 TEMPO VRB15G30KT -TSRA

VFR

19°C / 11°C

[Mais]
Vento 270º variable 210º to 310º 4kt
Visibilidade >10km
Tempo -
Nuvens Few Clouds 6000ft
Scattered Clouds 6500ft
Pressão 1016
Mudança Becoming: Scattered Clouds 6000ft. Cumulonimbus
Bruto LOWI 080750Z 27004KT 210V310 9999 FEW060TCU SCT065 19/11 Q1016 BECMG SCT060CB

VFR

18°C / 11°C

[Mais]
Vento 270º variable 240º to 300º 5kt
Visibilidade >10km
Tempo -
Nuvens Few Clouds 6000ft
Scattered Clouds 6500ft
Pressão 1016
Mudança Becoming: Scattered Clouds 6000ft. Cumulonimbus
Bruto LOWI 080720Z 27005KT 240V300 9999 FEW060TCU SCT065 18/11 Q1016 BECMG SCT060CB

VFR

18°C / 10°C

[Mais]
Vento variable 2kt
Visibilidade >10km
Tempo -
Nuvens Few Clouds 6000ft
Scattered Clouds 6500ft
Pressão 1016
Mudança No Significant change
Bruto LOWI 080650Z VRB02KT 9999 FEW060TCU SCT065 18/10 Q1016 NOSIG

VFR

16°C / 12°C

[Mais]
Vento 270º variable 240º to 300º 4kt
Visibilidade >10km
Tempo -
Nuvens Scattered Clouds 6500ft
Scattered Clouds 10000ft
Pressão 1016
Mudança No Significant change
Bruto LOWI 080620Z 27004KT 240V300 9999 SCT065 SCT100 16/12 Q1016 NOSIG

VFR

16°C / 11°C

[Mais]
Vento 260º 5kt
Visibilidade >10km
Tempo -
Nuvens Scattered Clouds 6500ft
Broken Clouds 12000ft
Pressão 1016
Mudança No Significant change
Bruto LOWI 080550Z 26005KT 9999 SCT065 BKN120 16/11 Q1016 NOSIG

VFR

16°C / 11°C

[Mais]
Vento 270º 5kt
Visibilidade >10km
Tempo -
Nuvens Few Clouds 6500ft
Scattered Clouds 9000ft
Broken Clouds 12000ft
Pressão 1016
Mudança No Significant change
Bruto LOWI 080520Z 27005KT 9999 FEW065 SCT090 BKN120 16/11 Q1016 NOSIG

VFR

15°C / 11°C

[Mais]
Vento variable 2kt
Visibilidade >10km
Tempo -
Nuvens Few Clouds 6500ft
Scattered Clouds 9000ft
Broken Clouds 12000ft
Pressão 1016
Mudança No Significant change
Bruto LOWI 080450Z VRB02KT 9999 FEW065 SCT090 BKN120 15/11 Q1016 NOSIG

VFR

13°C / 11°C

[Mais]
Vento 150º 2kt
Visibilidade >10km
Tempo -
Nuvens Few Clouds 6500ft
Scattered Clouds 9000ft
Broken Clouds 12000ft
Pressão 1016
Mudança No Significant change
Bruto LOWI 080420Z 15002KT 9999 FEW065 SCT090 BKN120 13/11 Q1016 NOSIG

VFR

13°C / 10°C

[Mais]
Vento variable 2kt
Visibilidade >10km
Tempo -
Nuvens Few Clouds 6500ft
Broken Clouds 10000ft
Pressão 1016
Mudança No Significant change
Bruto LOWI 080350Z VRB02KT 9999 FEW065 BKN100 13/10 Q1016 NOSIG

VFR

13°C / 10°C

[Mais]
Vento variable 2kt
Visibilidade >10km
Tempo -
Nuvens Few Clouds 9000ft
Scattered Clouds 10000ft
Broken Clouds 12000ft
Pressão 1016
Mudança -
Bruto LOWI 080320Z AUTO VRB02KT 9999 FEW090 SCT100 BKN120 13/10 Q1016

VFR

13°C / 10°C

[Mais]
Vento variable 2kt
Visibilidade >10km
Tempo -
Nuvens Few Clouds 9000ft
Broken Clouds 11000ft
Pressão 1016
Mudança -
Bruto LOWI 080250Z AUTO VRB02KT 9999 FEW090 BKN110 13/10 Q1016

VFR

13°C / 10°C

[Mais]
Vento variable 1kt
Visibilidade >10km
Tempo -
Nuvens Broken Clouds 9000ft
Pressão 1016
Mudança -
Bruto LOWI 080220Z AUTO VRB01KT 9999 BKN090 13/10 Q1016

VFR

14°C / 10°C

[Mais]
Vento variable 1kt
Visibilidade >10km
Tempo -
Nuvens Few Clouds 9000ft
Pressão 1016
Mudança -
Bruto LOWI 080150Z AUTO VRB01KT 9999 FEW090 14/10 Q1016

VFR

14°C / 10°C

[Mais]
Vento variable 1kt
Visibilidade >10km
Tempo -
Nuvens Clear
Pressão 1016
Mudança -
Bruto LOWI 080120Z AUTO VRB01KT 9999 NSC 14/10 Q1016

VFR

15°C / 10°C

[Mais]
Vento variable 2kt
Visibilidade >10km
Tempo -
Nuvens Clear
Pressão 1017
Mudança -
Bruto LOWI 080050Z AUTO VRB02KT 9999 NSC 15/10 Q1017

VFR

15°C / 10°C

[Mais]
Vento variable 4kt
Visibilidade >10km
Tempo -
Nuvens Few Clouds 10000ft
Pressão 1017
Mudança -
Bruto LOWI 080020Z AUTO VRB04KT 9999 FEW100 15/10 Q1017

TAF para Innsbruck (LOWI)

From till


Maximum Temperature 25ºC on . Minimum Temperature 12ºC on .
From till Wind 90º 8kt. Visibility 10km or more. Scattered Clouds 6000ft. Broken Clouds 8000ft.
Temporarly from till Wind variable 15kt. Gust 30kt. Thunderstorm Rain .
With 40% probability, Temporarly from till Wind variable 15kt. Gust 25kt. Light Thunderstorm Rain .
Becoming from till Wind 270º 4kt. Visibility 10km or more. Few Clouds 5000ft. Scattered Clouds 7000ft.
Becoming from till Wind 90º 8kt. Visibility 10km or more. Few Clouds 5000ft. Scattered Clouds 7000ft.

Bruto: TAF LOWI 081115Z 0812/0912 09008KT 9999 SCT060CB BKN080 TX25/0912Z TN12/0904Z TEMPO 0812/0814 VRB15G30KT TSRA PROB40 TEMPO 0814/0818 VRB15G25KT -TSRA BECMG 0817/0819 27004KT FEW050 SCT070 BECMG 0909/0911 09008KT

Radar e precipitação nowcast para Innsbruck

Chuvisco
Leve
Moderado
Forte
Muito forte
Granizo

O marcador do lugar é colocado em Innsbruck. Esta animação mostra o radar de precipitação para o intervalo de tempo selecionado, bem como uma previsão de 2h. As cruzes de cor laranja indicam relâmpagos. Dados fornecidos por nowcast.de (disponível nos EUA, Europa e Austrália). A queda de neve suave ou ligeira pode ser invisível para o radar. A intensidade da precipitação é codificada por cores, variando de turquesa a vermelha.

Imagens atuais de satélite e precipitação para Innsbruck, Áustria

O marcador de lugar é colocado em Innsbruck. [Mais]

A imagem de satélite em tempo real combina luz visível durante o dia com radiação infravermelha durante a noite. À noite, a imagem não é escura, pois a radiação infravermelha pode detectar diferenças de temperatura. Infelizmente, nuvens baixas e neblina são difíceis de distinguir das temperaturas do solo e, portanto, podem ser quase invisíveis durante a noite. As imagens de satélite Meteosat para a Europa são atualizadas em tempo real a cada 5 minutos. GOES-16/GOES-17 ( América do Norte e do Sul) e Himawari (Ásia) são atualizadas a cada 10 minutos.

A precipitação é estimada a partir de radares e satélites. As estimativas de precipitação a partir de satélites são menos precisas à noite do que durante o dia.

© 2023 meteoblue, NOAA Satellites GOES-16 and EUMETSAT. Dados de relâmpagos fornecidos por nowcast.

Voltar ao início